Terminal Aerodrome Forecast
Issued by NWS

Home | Current Version | Previous Version | Text Only | Print | Product List | Glossary On
Versions: 1 2 3 4 5 6 7 8 9 10 11 12 13 14 15 16 17 18 19 20 21 22 23 24 25 26 27 28 29 30 31 32 33 34 35
000
FTUS45 KSLC 060520
TAFENV
TAF
KENV 060520Z 0606/0706 35010KT P6SM SCT070 SCT110
     FM060900 30007KT P6SM FEW100
     FM061600 12007KT P6SM SCT080 SCT120
     FM062100 31010KT P6SM SCT080 SCT120
     FM070300 VRB05KT P6SM SCT120
      AMD LTD TO CLD VIS AND WIND=

USA.gov is the U.S. government's official web portal to all federal, state and local government web resources and services.